Flight Track Log - Related Links

Times and Time Zones

All times are in EST time to prevent confusion due to time zone crossing. See the AFL150 flight status page for this flight to view local times or setup timezone preferences in your user account.

Time Position Orientation Groundspeed Altitude Reporting Facility
EST Latitude Longitude Course Direction KTS MPH feet Rate Location/Type
Thu 04:44:00 AM 56.1890 37.1356 307° West  Level Estimated
Thu 04:45:00 AM 56.2568 36.9707 307° West  Level Estimated
Thu 04:46:00 AM 56.3245 36.8052 306° West  Level Estimated
Thu 04:47:00 AM 56.3919 36.6391 306° West  Level Estimated
Thu 04:48:00 AM 56.4592 36.4725 306° West  Level Estimated
Thu 04:49:00 AM 56.5262 36.3052 306° West  Level Estimated
Thu 04:50:00 AM 56.5929 36.1374 306° West  Level Estimated
Thu 04:51:00 AM 56.6595 35.9690 306° West  Level Estimated
Thu 04:52:00 AM 56.7258 35.7999 306° West  Level Estimated
Thu 04:53:00 AM 56.7919 35.6303 305° West  Level Estimated
Thu 04:54:00 AM 56.8569 35.4623 305° West  Level Estimated
Thu 04:55:00 AM 56.9216 35.2938 305° West  Level Estimated
Thu 04:56:00 AM 56.9862 35.1246 305° West  Level Estimated
Thu 04:57:00 AM 57.0505 34.9548 305° West  Level Estimated
Thu 04:58:00 AM 57.1146 34.7845 305° West  Level Estimated
Thu 04:59:00 AM 57.1784 34.6136 305° West  Level Estimated
Thu 05:00:00 AM 57.2420 34.4421 304° West  Level Estimated
Thu 05:01:00 AM 57.3054 34.2700 304° West  Level Estimated
Thu 05:02:00 AM 57.3685 34.0973 304° West  Level Estimated
Thu 05:03:00 AM 57.4315 33.9240 304° West  Level Estimated
Thu 05:04:00 AM 57.4941 33.7501 304° West  Level Estimated
Thu 05:05:00 AM 57.5565 33.5756 304° West  Level Estimated
Thu 05:06:00 AM 57.6187 33.4005 304° West  Level Estimated
Thu 05:07:00 AM 57.6807 33.2248 303° West  Level Estimated
Thu 05:08:00 AM 57.7424 33.0486 303° West  Level Estimated
Thu 05:09:00 AM 57.8038 32.8717 303° West  Level Estimated
Thu 05:10:00 AM 57.8651 32.6942 303° West  Level Estimated
Thu 05:11:00 AM 57.9260 32.5161 303° West  Level Estimated
Thu 05:12:00 AM 57.9867 32.3374 303° West  Level Estimated
Thu 05:13:00 AM 58.0472 32.1581 303° West  Level Estimated
Thu 05:14:00 AM 58.1074 31.9782 302° West  Level Estimated
Thu 05:15:00 AM 58.1673 31.7977 302° West  Level Estimated
Thu 05:16:00 AM 58.2270 31.6166 302° West  Level Estimated
Thu 05:17:00 AM 58.2865 31.4348 302° West  Level Estimated
Thu 05:18:00 AM 58.3457 31.2525 302° West  Level Estimated
Thu 05:19:00 AM 58.4046 31.0695 302° West  Level Estimated
Thu 05:20:00 AM 58.4632 30.8860 301° West  Level Estimated
Thu 05:21:00 AM 58.5216 30.7018 301° West  Level Estimated
Thu 05:22:00 AM 58.5798 30.5170 301° West  Level Estimated
Thu 05:23:00 AM 58.6376 30.3316 301° West  Level Estimated
Thu 05:24:00 AM 58.6952 30.1456 301° West  Level Estimated
Thu 05:25:00 AM 58.7525 29.9590 301° West  Level Estimated
Thu 05:26:00 AM 58.8096 29.7717 301° West  Level Estimated
Thu 05:27:00 AM 58.8664 29.5839 300° West  Level Estimated
Thu 05:28:00 AM 58.9229 29.3954 300° West  Level Estimated
Thu 05:29:00 AM 58.9791 29.2063 300° West  Level Estimated
Thu 05:30:00 AM 59.0351 29.0166 300° West  Level Estimated
Thu 05:31:00 AM 59.0908 28.8263 300° West  Level Estimated
Thu 05:32:00 AM 59.1462 28.6353 300° West  Level Estimated
Thu 05:33:00 AM 59.2013 28.4438 299° West  Level Estimated
Thu 05:34:00 AM 59.2562 28.2516 299° West  Level Estimated
Thu 05:35:00 AM 59.3107 28.0588 299° West  Level Estimated
Thu 05:36:00 AM 59.3650 27.8654 299° West  Level Estimated
Thu 05:37:00 AM 59.4190 27.6713 299° West  Level Estimated
Thu 05:38:00 AM 59.4727 27.4767 299° West  Level Estimated
Thu 05:39:00 AM 59.5261 27.2814 298° West  Level Estimated
Thu 05:40:00 AM 59.5792 27.0855 298° West  Level Estimated
Thu 05:41:00 AM 59.6320 26.8890 298° West  Level Estimated
Thu 05:42:00 AM 59.6845 26.6919 298° West  Level Estimated
Thu 05:43:00 AM 59.7368 26.4942 298° West  Level Estimated
Thu 05:44:00 AM 59.7887 26.2958 298° West  Level Estimated
Thu 05:45:00 AM 59.8403 26.0968 297° West  Level Estimated
Thu 05:46:00 AM 59.8916 25.8972 297° West  Level Estimated
Thu 05:47:00 AM 59.9427 25.6970 297° West  Level Estimated
Thu 05:48:00 AM 59.9934 25.4962 297° West  Level Estimated
Thu 05:49:00 AM 60.0438 25.2948 297° West  Level Estimated
Thu 05:50:00 AM 60.0939 25.0927 297° West  Level Estimated
Thu 05:51:00 AM 60.1437 24.8901 296° West  Level Estimated
Thu 05:52:00 AM 60.1932 24.6868 296° West  Level Estimated
Thu 05:53:00 AM 60.2424 24.4829 296° West  Level Estimated
Thu 05:54:00 AM 60.2912 24.2784 296° West  Level Estimated
Thu 05:55:00 AM 60.3398 24.0733 296° West  Level Estimated
Thu 05:56:00 AM 60.3880 23.8676 295° West  Level Estimated
Thu 05:57:00 AM 60.4359 23.6612 295° West  Level Estimated
Thu 05:58:00 AM 60.4835 23.4543 295° West  Level Estimated
Thu 05:59:00 AM 60.5308 23.2468 295° West  Level Estimated
Thu 06:00:00 AM 60.5778 23.0386 295° West  Level Estimated
Thu 06:01:00 AM 60.6244 22.8299 295° West  Level Estimated
Thu 06:02:00 AM 60.6707 22.6205 294° West  Level Estimated
Thu 06:03:00 AM 60.7166 22.4106 294° West  Level Estimated
Thu 06:04:00 AM 60.7623 22.2000 294° West  Level Estimated
Thu 06:05:00 AM 60.8076 21.9889 294° West  Level Estimated
Thu 06:06:00 AM 60.8526 21.7771 294° West  Level Estimated
Thu 06:07:00 AM 60.8972 21.5648 293° West  Level Estimated
Thu 06:08:00 AM 60.9415 21.3519 293° West  Level Estimated
Thu 06:09:00 AM 60.9855 21.1383 293° West  Level Estimated
Thu 06:10:00 AM 61.0291 20.9242 293° West  Level Estimated
Thu 06:11:00 AM 61.0724 20.7095 293° West  Level Estimated
Thu 06:12:00 AM 61.1154 20.4942 293° West  Level Estimated
Thu 06:13:00 AM 61.1580 20.2783 292° West  Level Estimated
Thu 06:14:00 AM 61.2003 20.0619 292° West  Level Estimated
Thu 06:15:00 AM 61.2422 19.8449 292° West  Level Estimated
Thu 06:16:00 AM 61.2838 19.6273 292° West  Level Estimated
Thu 06:17:00 AM 61.3250 19.4091 292° West  Level Estimated
Thu 06:18:00 AM 61.3659 19.1903 291° West  Level Estimated
Thu 06:19:00 AM 61.4064 18.9710 291° West  Level Estimated
Thu 06:20:00 AM 61.4465 18.7511 291° West  Level Estimated
Thu 06:21:00 AM 61.4864 18.5306 291° West  Level Estimated
Thu 06:22:00 AM 61.5258 18.3096 291° West  Level Estimated
Thu 06:23:00 AM 61.5649 18.0880 290° West  Level Estimated
Thu 06:24:00 AM 61.6036 17.8659 290° West  Level Estimated
Thu 06:25:00 AM 61.6420 17.6432 290° West  Level Estimated
Thu 06:26:00 AM 61.6800 17.4200 290° West  Level Estimated
Thu 06:27:00 AM 61.7177 17.1962 290° West  Level Estimated
Thu 06:28:00 AM 61.7550 16.9718 289° West  Level Estimated
Thu 06:29:00 AM 61.7919 16.7470 289° West  Level Estimated
Thu 06:30:00 AM 61.8284 16.5216 289° West  Level Estimated
Thu 06:31:00 AM 61.8646 16.2956 289° West  Level Estimated
Thu 06:32:00 AM 61.9004 16.0691 289° West  Level Estimated
Thu 06:33:00 AM 61.9358 15.8421 288° West  Level Estimated
Thu 06:34:00 AM 61.9709 15.6146 288° West  Level Estimated
Thu 06:35:00 AM 62.0056 15.3865 288° West  Level Estimated
Thu 06:36:00 AM 62.0399 15.1580 288° West  Level Estimated
Thu 06:37:00 AM 62.0738 14.9289 288° West  Level Estimated
Thu 06:38:00 AM 62.1074 14.6993 287° West  Level Estimated
Thu 06:39:00 AM 62.1405 14.4692 287° West  Level Estimated
Thu 06:40:00 AM 62.1733 14.2386 287° West  Level Estimated
Thu 06:41:00 AM 62.2057 14.0075 287° West  Level Estimated
Thu 06:42:00 AM 62.2377 13.7759 287° West  Level Estimated
Thu 06:43:00 AM 62.2693 13.5438 286° West  Level Estimated
Thu 06:44:00 AM 62.3006 13.3113 286° West  Level Estimated
Thu 06:45:00 AM 62.3314 13.0782 286° West  Level Estimated
Thu 06:46:00 AM 62.3619 12.8447 286° West  Level Estimated
Thu 06:47:00 AM 62.3920 12.6107 286° West  Level Estimated
Thu 06:48:00 AM 62.4216 12.3763 285° West  Level Estimated
Thu 06:49:00 AM 62.4509 12.1413 285° West  Level Estimated
Thu 06:50:00 AM 62.4798 11.9059 285° West  Level Estimated
Thu 06:51:00 AM 62.5083 11.6701 285° West  Level Estimated
Thu 06:52:00 AM 62.5364 11.4338 285° West  Level Estimated
Thu 06:53:00 AM 62.5641 11.1971 284° West  Level Estimated
Thu 06:54:00 AM 62.5914 10.9600 284° West  Level Estimated
Thu 06:55:00 AM 62.6183 10.7224 284° West  Level Estimated
Thu 06:56:00 AM 62.6447 10.4843 284° West  Level Estimated
Thu 06:57:00 AM 62.6708 10.2459 284° West  Level Estimated
Thu 06:58:00 AM 62.6965 10.0070 283° West  Level Estimated
Thu 06:59:00 AM 62.7218 9.7677 283° West  Level Estimated
Thu 07:00:00 AM 62.7466 9.5281 283° West  Level Estimated
Thu 07:01:00 AM 62.7711 9.2880 283° West  Level Estimated
Thu 07:02:00 AM 62.7951 9.0475 282° West  Level Estimated
Thu 07:03:00 AM 62.8187 8.8067 282° West  Level Estimated
Thu 07:04:00 AM 62.8420 8.5654 282° West  Level Estimated
Thu 07:05:00 AM 62.8648 8.3238 282° West  Level Estimated
Thu 07:06:00 AM 62.8872 8.0818 282° West  Level Estimated
Thu 07:07:00 AM 62.9091 7.8394 281° West  Level Estimated
Thu 07:08:00 AM 62.9307 7.5967 281° West  Level Estimated
Thu 07:09:00 AM 62.9518 7.3536 281° West  Level Estimated
Thu 07:10:00 AM 62.9726 7.1102 281° West  Level Estimated
Thu 07:11:00 AM 62.9929 6.8664 280° West  Level Estimated
Thu 07:12:00 AM 63.0127 6.6223 280° West  Level Estimated
Thu 07:13:00 AM 63.0322 6.3779 280° West  Level Estimated
Thu 07:14:00 AM 63.0513 6.1331 280° West  Level Estimated
Thu 07:15:00 AM 63.0699 5.8880 280° West  Level Estimated
Thu 07:16:00 AM 63.0881 5.6427 279° West  Level Estimated
Thu 07:17:00 AM 63.1058 5.3970 279° West  Level Estimated
Thu 07:18:00 AM 63.1232 5.1510 279° West  Level Estimated
Thu 07:19:00 AM 63.1401 4.9047 279° West  Level Estimated
Thu 07:20:00 AM 63.1566 4.6581 279° West  Level Estimated
Thu 07:21:00 AM 63.1726 4.4113 278° West  Level Estimated
Thu 07:22:00 AM 63.1883 4.1642 278° West  Level Estimated
Thu 07:23:00 AM 63.2035 3.9168 278° West  Level Estimated
Thu 07:24:00 AM 63.2183 3.6692 278° West  Level Estimated
Thu 07:25:00 AM 63.2326 3.4213 277° West  Level Estimated
Thu 07:26:00 AM 63.2465 3.1732 277° West  Level Estimated
Thu 07:27:00 AM 63.2600 2.9248 277° West  Level Estimated
Thu 07:28:00 AM 63.2730 2.6763 277° West  Level Estimated
Thu 07:29:00 AM 63.2856 2.4275 277° West  Level Estimated
Thu 07:30:00 AM 63.2978 2.1784 276° West  Level Estimated
Thu 07:31:00 AM 63.3096 1.9292 276° West  Level Estimated
Thu 07:32:00 AM 63.3209 1.6798 276° West  Level Estimated
Thu 07:33:00 AM 63.3318 1.4302 276° West  Level Estimated
Thu 07:34:00 AM 63.3422 1.1804 275° West  Level Estimated
Thu 07:35:00 AM 63.3522 0.9304 275° West  Level Estimated
Thu 07:36:00 AM 63.3618 0.6802 275° West  Level Estimated
Thu 07:37:00 AM 63.3709 0.4299 275° West  Level Estimated
Thu 07:38:00 AM 63.3796 0.1795 275° West  Level Estimated
Thu 07:39:00 AM 63.3878 -0.0711 274° West  Level Estimated
Thu 07:40:00 AM 63.3956 -0.3219 274° West  Level Estimated
Thu 07:41:00 AM 63.4030 -0.5728 274° West  Level Estimated
Thu 07:42:00 AM 63.4099 -0.8238 274° West  Level Estimated
Thu 07:43:00 AM 63.4164 -1.0749 273° West  Level Estimated
Thu 07:44:00 AM 63.4224 -1.3262 273° West  Level Estimated
Thu 07:45:00 AM 63.4280 -1.5775 273° West  Level Estimated
Thu 07:46:00 AM 63.4332 -1.8289 273° West  Level Estimated
Thu 07:47:00 AM 63.4379 -2.0805 273° West  Level Estimated
Thu 07:48:00 AM 63.4422 -2.3321 272° West  Level Estimated
Thu 07:49:00 AM 63.4460 -2.5837 272° West  Level Estimated
Thu 07:50:00 AM 63.4495 -2.8355 272° West  Level Estimated
Thu 07:51:00 AM 63.4524 -3.0873 272° West  Level Estimated
Thu 07:52:00 AM 63.4549 -3.3391 271° West  Level Estimated
Thu 07:53:00 AM 63.4570 -3.5910 271° West  Level Estimated
Thu 07:54:00 AM 63.4586 -3.8429 271° West  Level Estimated
Thu 07:55:00 AM 63.4598 -4.0948 271° West  Level Estimated
Thu 07:56:00 AM 63.4605 -4.3468 270° West  Level Estimated
Thu 07:57:00 AM 63.4608 -4.5988 270° West  Level Estimated
Thu 07:58:00 AM 63.4607 -4.8507 270° West  Level Estimated
Thu 07:59:00 AM 63.4601 -5.1027 270° West  Level Estimated
Thu 08:00:00 AM 63.4591 -5.3546 270° West  Level Estimated
Thu 08:01:00 AM 63.4576 -5.6066 269° West  Level Estimated
Thu 08:02:00 AM 63.4557 -5.8584 269° West  Level Estimated
Thu 08:03:00 AM 63.4533 -6.1103 269° West  Level Estimated
Thu 08:04:00 AM 63.4505 -6.3621 269° West  Level Estimated
Thu 08:05:00 AM 63.4473 -6.6139 268° West  Level Estimated
Thu 08:06:00 AM 63.4436 -6.8656 268° West  Level Estimated
Thu 08:07:00 AM 63.4394 -7.1172 268° West  Level Estimated
Thu 08:08:00 AM 63.4349 -7.3687 268° West  Level Estimated
Thu 08:09:00 AM 63.4299 -7.6202 268° West  Level Estimated
Thu 08:10:00 AM 63.4244 -7.8716 267° West  Level Estimated
Thu 08:11:00 AM 63.4185 -8.1229 267° West  Level Estimated
Thu 08:12:00 AM 63.4122 -8.3740 267° West  Level Estimated
Thu 08:13:00 AM 63.4054 -8.6251 267° West  Level Estimated
Thu 08:14:00 AM 63.3982 -8.8760 266° West  Level Estimated
Thu 08:15:00 AM 63.3905 -9.1268 266° West  Level Estimated
Thu 08:16:00 AM 63.3824 -9.3775 266° West  Level Estimated
Thu 08:17:00 AM 63.3739 -9.6280 266° West  Level Estimated
Thu 08:18:00 AM 63.3649 -9.8784 266° West  Level Estimated
Thu 08:19:00 AM 63.3555 -10.1286 265° West  Level Estimated
Thu 08:20:00 AM 63.3457 -10.3786 265° West  Level Estimated
Thu 08:21:00 AM 63.3354 -10.6285 265° West  Level Estimated
Thu 08:22:00 AM 63.3247 -10.8781 265° West  Level Estimated
Thu 08:23:00 AM 63.3135 -11.1276 264° West  Level Estimated
Thu 08:24:00 AM 63.3019 -11.3769 264° West  Level Estimated
Thu 08:25:00 AM 63.2899 -11.6260 264° West  Level Estimated
Thu 08:26:00 AM 63.2774 -11.8749 264° West  Level Estimated
Thu 08:27:00 AM 63.2645 -12.1236 264° West  Level Estimated
Thu 08:28:00 AM 63.2512 -12.3720 263° West  Level Estimated
Thu 08:29:00 AM 63.2374 -12.6202 263° West  Level Estimated
Thu 08:30:00 AM 63.2232 -12.8681 263° West  Level Estimated
Thu 08:31:00 AM 63.2086 -13.1159 263° West  Level Estimated
Thu 08:32:00 AM 63.1936 -13.3633 262° West  Level Estimated
Thu 08:33:00 AM 63.1781 -13.6105 262° West  Level Estimated
Thu 08:34:00 AM 63.1622 -13.8574 262° West  Level Estimated
Thu 08:35:00 AM 63.1458 -14.1041 262° West  Level Estimated
Thu 08:36:00 AM 63.1290 -14.3505 262° West  Level Estimated
Thu 08:37:00 AM 63.1118 -14.5966 261° West  Level Estimated
Thu 08:38:00 AM 63.0942 -14.8424 261° West  Level Estimated
Thu 08:39:00 AM 63.0762 -15.0878 261° West  Level Estimated
Thu 08:40:00 AM 63.0577 -15.3330 261° West  Level Estimated
Thu 08:41:00 AM 63.0388 -15.5779 260° West  Level Estimated
Thu 08:42:00 AM 63.0195 -15.8224 260° West  Level Estimated
Thu 08:43:00 AM 62.9997 -16.0667 260° West  Level Estimated
Thu 08:44:00 AM 62.9796 -16.3105 260° West  Level Estimated
Thu 08:45:00 AM 62.9590 -16.5541 260° West  Level Estimated
Thu 08:46:00 AM 62.9380 -16.7973 259° West  Level Estimated
Thu 08:47:00 AM 62.9166 -17.0401 259° West  Level Estimated
Thu 08:48:00 AM 62.8947 -17.2826 259° West  Level Estimated
Thu 08:49:00 AM 62.8725 -17.5247 259° West  Level Estimated
Thu 08:50:00 AM 62.8498 -17.7665 258° West  Level Estimated
Thu 08:51:00 AM 62.8268 -18.0079 258° West  Level Estimated
Thu 08:52:00 AM 62.8033 -18.2489 258° West  Level Estimated
Thu 08:53:00 AM 62.7794 -18.4895 258° West  Level Estimated
Thu 08:54:00 AM 62.7551 -18.7297 258° West  Level Estimated
Thu 08:55:00 AM 62.7303 -18.9695 257° West  Level Estimated
Thu 08:56:00 AM 62.7052 -19.2089 257° West  Level Estimated
Thu 08:57:00 AM 62.6797 -19.4480 257° West  Level Estimated
Thu 08:58:00 AM 62.6537 -19.6865 257° West  Level Estimated
Thu 08:59:00 AM 62.6274 -19.9247 257° West  Level Estimated
Thu 09:00:00 AM 62.6006 -20.1624 256° West  Level Estimated
Thu 09:01:00 AM 62.5735 -20.3998 256° West  Level Estimated
Thu 09:02:00 AM 62.5459 -20.6366 256° West  Level Estimated
Thu 09:03:00 AM 62.5180 -20.8731 256° West  Level Estimated
Thu 09:04:00 AM 62.4896 -21.1091 256° West  Level Estimated
Thu 09:05:00 AM 62.4609 -21.3446 255° West  Level Estimated
Thu 09:06:00 AM 62.4317 -21.5797 255° West  Level Estimated
Thu 09:07:00 AM 62.4022 -21.8143 255° West  Level Estimated
Thu 09:08:00 AM 62.3723 -22.0484 255° West  Level Estimated
Thu 09:09:00 AM 62.3419 -22.2821 254° West  Level Estimated
Thu 09:10:00 AM 62.3112 -22.5153 254° West  Level Estimated
Thu 09:11:00 AM 62.2801 -22.7481 254° West  Level Estimated
Thu 09:12:00 AM 62.2486 -22.9803 254° West  Level Estimated
Thu 09:13:00 AM 62.2167 -23.2121 254° West  Level Estimated
Thu 09:14:00 AM 62.1845 -23.4433 253° West  Level Estimated
Thu 09:15:00 AM 62.1518 -23.6741 253° West  Level Estimated
Thu 09:16:00 AM 62.1188 -23.9044 253° West  Level Estimated
Thu 09:17:00 AM 62.0854 -24.1341 253° West  Level Estimated
Thu 09:18:00 AM 62.0516 -24.3634 253° West  Level Estimated
Thu 09:19:00 AM 62.0174 -24.5921 252° West  Level Estimated
Thu 09:20:00 AM 61.9828 -24.8204 252° West  Level Estimated
Thu 09:21:00 AM 61.9479 -25.0481 252° West  Level Estimated
Thu 09:22:00 AM 61.9126 -25.2753 252° West  Level Estimated
Thu 09:23:00 AM 61.8769 -25.5019 252° West  Level Estimated
Thu 09:24:00 AM 61.8409 -25.7281 251° West  Level Estimated
Thu 09:25:00 AM 61.8045 -25.9537 251° West  Level Estimated
Thu 09:26:00 AM 61.7677 -26.1787 251° West  Level Estimated
Thu 09:27:00 AM 61.7305 -26.4032 251° West  Level Estimated
Thu 09:28:00 AM 61.6930 -26.6272 251° West  Level Estimated
Thu 09:29:00 AM 61.6551 -26.8506 250° West  Level Estimated
Thu 09:30:00 AM 61.6169 -27.0735 250° West  Level Estimated
Thu 09:31:00 AM 61.5782 -27.2959 250° West  Level Estimated
Thu 09:32:00 AM 61.5393 -27.5176 250° West  Level Estimated
Thu 09:33:00 AM 61.4999 -27.7388 250° West  Level Estimated
Thu 09:34:00 AM 61.4603 -27.9595 249° West  Level Estimated
Thu 09:35:00 AM 61.4202 -28.1796 249° West  Level Estimated
Thu 09:36:00 AM 61.3798 -28.3991 249° West  Level Estimated
Thu 09:37:00 AM 61.3391 -28.6180 249° West  Level Estimated
Thu 09:38:00 AM 61.2980 -28.8364 249° West  Level Estimated
Thu 09:39:00 AM 61.2565 -29.0542 248° West  Level Estimated
Thu 09:40:00 AM 61.2147 -29.2715 248° West  Level Estimated
Thu 09:41:00 AM 61.1726 -29.4881 248° West  Level Estimated
Thu 09:42:00 AM 61.1301 -29.7042 248° West  Level Estimated
Thu 09:43:00 AM 61.0872 -29.9197 248° West  Level Estimated
Thu 09:44:00 AM 61.0440 -30.1346 248° West  Level Estimated
Thu 09:45:00 AM 61.0005 -30.3489 247° West  Level Estimated
Thu 09:46:00 AM 60.9567 -30.5626 247° West  Level Estimated
Thu 09:47:00 AM 60.9125 -30.7758 247° West  Level Estimated
Thu 09:48:00 AM 60.8679 -30.9883 247° West  Level Estimated
Thu 09:49:00 AM 60.8231 -31.2003 247° West  Level Estimated
Thu 09:50:00 AM 60.7779 -31.4116 246° West  Level Estimated
Thu 09:51:00 AM 60.7323 -31.6224 246° West  Level Estimated
Thu 09:52:00 AM 60.6865 -31.8325 246° West  Level Estimated
Thu 09:53:00 AM 60.6403 -32.0421 246° West  Level Estimated
Thu 09:54:00 AM 60.5938 -32.2510 246° West  Level Estimated
Thu 09:55:00 AM 60.5470 -32.4594 246° West  Level Estimated
Thu 09:56:00 AM 60.4998 -32.6671 245° Southwest  Level Estimated
Thu 09:57:00 AM 60.4523 -32.8743 245° Southwest  Level Estimated
Thu 09:58:00 AM 60.4045 -33.0808 245° Southwest  Level Estimated
Thu 09:59:00 AM 60.3564 -33.2867 245° Southwest  Level Estimated
Thu 10:00:00 AM 60.3079 -33.4921 245° Southwest  Level Estimated
Thu 10:01:00 AM 60.2592 -33.6968 244° Southwest  Level Estimated
Thu 10:02:00 AM 60.2101 -33.9009 244° Southwest  Level Estimated
Thu 10:03:00 AM 60.1607 -34.1044 244° Southwest  Level Estimated
Thu 10:04:00 AM 60.1110 -34.3072 244° Southwest  Level Estimated
Thu 10:05:00 AM 60.0610 -34.5095 244° Southwest  Level Estimated
Thu 10:06:00 AM 60.0107 -34.7111 244° Southwest  Level Estimated
Thu 10:07:00 AM 59.9601 -34.9122 243° Southwest  Level Estimated
Thu 10:08:00 AM 59.9092 -35.1126 243° Southwest  Level Estimated
Thu 10:09:00 AM 59.8580 -35.3124 243° Southwest  Level Estimated
Thu 10:10:00 AM 59.8064 -35.5116 243° Southwest  Level Estimated
Thu 10:11:00 AM 59.7546 -35.7101 243° Southwest  Level Estimated
Thu 10:12:00 AM 59.7025 -35.9081 243° Southwest  Level Estimated
Thu 10:13:00 AM 59.6501 -36.1054 242° Southwest  Level Estimated
Thu 10:14:00 AM 59.5973 -36.3021 242° Southwest  Level Estimated
Thu 10:15:00 AM 59.5443 -36.4982 242° Southwest  Level Estimated
Thu 10:16:00 AM 59.4910 -36.6937 242° Southwest  Level Estimated
Thu 10:17:00 AM 59.4374 -36.8888 242° Southwest  Level Estimated
Thu 10:18:00 AM 59.3834 -37.0833 241° Southwest  Level Estimated
Thu 10:19:00 AM 59.3292 -37.2772 241° Southwest  Level Estimated
Thu 10:20:00 AM 59.2746 -37.4705 241° Southwest  Level Estimated
Thu 10:21:00 AM 59.2198 -37.6631 241° Southwest  Level Estimated
Thu 10:22:00 AM 59.1647 -37.8551 241° Southwest  Level Estimated
Thu 10:23:00 AM 59.1093 -38.0465 241° Southwest  Level Estimated
Thu 10:24:00 AM 59.0537 -38.2373 240° Southwest  Level Estimated
Thu 10:25:00 AM 58.9977 -38.4275 240° Southwest  Level Estimated
Thu 10:26:00 AM 58.9415 -38.6170 240° Southwest  Level Estimated
Thu 10:27:00 AM 58.8850 -38.8060 240° Southwest  Level Estimated
Thu 10:28:00 AM 58.8282 -38.9943 240° Southwest  Level Estimated
Thu 10:29:00 AM 58.7712 -39.1819 240° Southwest  Level Estimated
Thu 10:30:00 AM 58.7139 -39.3690 240° Southwest  Level Estimated
Thu 10:31:00 AM 58.6563 -39.5555 239° Southwest  Level Estimated
Thu 10:32:00 AM 58.5984 -39.7413 239° Southwest  Level Estimated
Thu 10:33:00 AM 58.5403 -39.9266 239° Southwest  Level Estimated
Thu 10:34:00 AM 58.4819 -40.1112 239° Southwest  Level Estimated
Thu 10:35:00 AM 58.4233 -40.2952 239° Southwest  Level Estimated
Thu 10:36:00 AM 58.3644 -40.4785 239° Southwest  Level Estimated
Thu 10:37:00 AM 58.3052 -40.6613 238° Southwest  Level Estimated
Thu 10:38:00 AM 58.2458 -40.8435 238° Southwest  Level Estimated
Thu 10:39:00 AM 58.1861 -41.0250 238° Southwest  Level Estimated
Thu 10:40:00 AM 58.1261 -41.2060 238° Southwest  Level Estimated
Thu 10:41:00 AM 58.0659 -41.3863 238° Southwest  Level Estimated
Thu 10:42:00 AM 58.0054 -41.5660 238° Southwest  Level Estimated
Thu 10:43:00 AM 57.9447 -41.7451 237° Southwest  Level Estimated
Thu 10:44:00 AM 57.8838 -41.9236 237° Southwest  Level Estimated
Thu 10:45:00 AM 57.8226 -42.1016 237° Southwest  Level Estimated
Thu 10:46:00 AM 57.7611 -42.2789 237° Southwest  Level Estimated
Thu 10:47:00 AM 57.6994 -42.4556 237° Southwest  Level Estimated
Thu 10:48:00 AM 57.6374 -42.6316 237° Southwest  Level Estimated
Thu 10:49:00 AM 57.5752 -42.8071 237° Southwest  Level Estimated
Thu 10:50:00 AM 57.5128 -42.9820 236° Southwest  Level Estimated
Thu 10:50:21 AM 63.7167 -54.8500 236° Southwest 290 334 36,000  Level Gander Center
Thu 10:51:00 AM 57.4501 -43.1563 236° Southwest  Level Estimated
Thu 10:51:21 AM 63.6500 -55.0833 237° Southwest 430 495 36,000  Level Gander Center
Thu 10:52:00 AM 57.3872 -43.3300 236° Southwest  Level Estimated
Thu 10:52:21 AM 63.5833 -55.3333 239° Southwest 460 529 36,000  Level Gander Center
Thu 10:53:00 AM 57.3240 -43.5031 236° Southwest  Level Estimated
Thu 10:53:21 AM 63.5000 -55.5667 231° Southwest 460 529 36,000  Level Gander Center
Thu 10:54:00 AM 57.2607 -43.6756 236° Southwest  Level Estimated
Thu 10:54:21 AM 63.4333 -55.8000 238° Southwest 450 518 36,000  Level Gander Center
Thu 10:55:00 AM 57.1970 -43.8475 236° Southwest  Level Estimated
Thu 10:55:21 AM 63.3667 -56.0333 238° Southwest 480 552 36,000  Level Gander Center
Thu 10:56:00 AM 57.1331 -44.0188 236° Southwest  Level Estimated
Thu 10:57:20 AM 63.2167 -56.4667 233° Southwest 460 529 36,000  Level Gander Center
Thu 10:58:20 AM 63.1667 -56.6667 241° Southwest 450 518 36,000  Level Gander Center
Thu 10:59:20 AM 63.0833 -56.8833 230° Southwest 450 518 36,000  Level Gander Center
Thu 11:00:20 AM 63.0167 -57.1167 238° Southwest 460 529 36,000  Level Gander Center
Thu 11:01:20 AM 62.9333 -57.3500 232° Southwest 450 518 36,000  Level Gander Center
Thu 11:02:20 AM 62.8500 -57.5833 232° Southwest 460 529 36,000  Level Gander Center
Thu 11:03:20 AM 62.7833 -57.8000 236° Southwest 450 518 36,000  Level Gander Center
Thu 11:04:20 AM 62.7000 -58.0333 232° Southwest 470 541 36,000  Level Gander Center
Thu 11:05:20 AM 62.6167 -58.2500 230° Southwest 470 541 36,000  Level Gander Center
Thu 11:06:20 AM 62.5500 -58.4833 238° Southwest 460 529 36,000  Level Gander Center
Thu 11:07:20 AM 62.4667 -58.6667 226° Southwest 460 529 36,000  Level Gander Center
Thu 11:08:20 AM 62.4000 -58.8833 236° Southwest 460 529 36,000  Level Gander Center
Thu 11:09:20 AM 62.3167 -59.1000 230° Southwest 460 529 36,000  Level Gander Center
Thu 11:10:21 AM 62.2500 -59.3167 237° Southwest 460 529 36,000  Level Gander Center
Thu 11:11:21 AM 62.1667 -59.5500 233° Southwest 450 518 36,000  Level Gander Center
Thu 11:12:21 AM 62.0833 -59.7667 231° Southwest 460 529 36,000  Level Gander Center
Thu 11:13:21 AM 62.0000 -59.9333 223° Southwest 460 529 36,000  Level Gander Center
Thu 11:14:21 AM 61.9167 -60.1500 231° Southwest 460 529 36,000  Level Gander Center
Thu 11:15:21 AM 61.8333 -60.3667 231° Southwest 450 518 36,000  Level Gander Center
Thu 11:16:21 AM 61.7667 -60.5833 237° Southwest 460 529 36,000  Level Gander Center
Thu 11:17:21 AM 61.6833 -60.8000 231° Southwest 460 529 36,000  Level Gander Center
Thu 11:18:21 AM 61.6000 -61.0000 229° Southwest 450 518 36,000  Level Gander Center
Thu 11:19:21 AM 61.5167 -61.1833 226° Southwest 460 529 36,000  Level Gander Center
Thu 11:20:21 AM 61.4333 -61.3833 229° Southwest 460 529 36,000  Level Gander Center
Thu 11:21:21 AM 61.3500 -61.6000 231° Southwest 460 529 36,000  Level Gander Center
Thu 11:22:21 AM 61.2667 -61.8333 233° Southwest 470 541 36,000  Level Gander Center
Thu 11:23:21 AM 61.1833 -62.0333 229° Southwest 460 529 36,000  Level Gander Center
Thu 11:24:21 AM 61.1000 -62.2167 227° Southwest 460 529 36,000  Level Gander Center
Thu 11:25:21 AM 61.0167 -62.4167 229° Southwest 460 529 36,000  Level Gander Center
Thu 11:26:21 AM 60.9333 -62.6167 229° Southwest 460 529 36,000  Level Gander Center
Thu 11:27:21 AM 60.8333 -62.8167 224° Southwest 460 529 36,000  Level Gander Center
Thu 11:28:21 AM 60.7667 -63.0500 240° Southwest 460 529 36,000  Level Gander Center
Thu 11:29:21 AM 60.6667 -63.2167 219° Southwest 460 529 36,000  Level Gander Center
Thu 11:30:21 AM 60.6000 -63.4167 236° Southwest 460 529 36,000  Level Gander Center
Thu 11:31:21 AM 60.5167 -63.6167 230° Southwest 460 529 36,000  Level Gander Center
Thu 11:32:21 AM 60.4333 -63.8000 227° Southwest 460 529 36,000  Level Gander Center
Thu 11:33:21 AM 60.3333 -63.9667 220° Southwest 460 529 36,000  Level Gander Center
Thu 11:34:21 AM 60.2500 -64.1667 230° Southwest 460 529 36,000  Level Gander Center
Thu 11:35:21 AM 60.1667 -64.3500 228° Southwest 460 529 36,000  Level Gander Center
Thu 11:36:21 AM 60.0833 -64.5500 230° Southwest 450 518 36,000  Level Gander Center
Thu 11:37:21 AM 59.9833 -64.7333 223° Southwest 450 518 36,000  Level Gander Center
Thu 11:38:32 AM 59.9000 -64.8833 222° Southwest 440 506 36,000  Level Montreal Center
Thu 11:39:32 AM 59.8167 -65.0333 222° Southwest 440 506 36,000  Level Montreal Center
Thu 11:40:32 AM 59.7167 -65.2333 225° Southwest 440 506 36,000  Level Montreal Center
Thu 11:41:32 AM 59.6333 -65.4000 225° Southwest 440 506 36,000  Level Montreal Center
Thu 11:42:32 AM 59.5667 -65.5833 234° Southwest 440 506 36,000  Level Montreal Center
Thu 11:43:32 AM 59.4833 -65.7500 225° Southwest 450 518 36,000  Level Montreal Center
Thu 11:44:32 AM 59.3833 -65.9333 223° Southwest 440 506 36,000  Level Montreal Center
Thu 11:45:32 AM 59.3000 -66.1000 226° Southwest 440 506 36,000  Level Montreal Center
Thu 11:46:32 AM 59.2167 -66.2833 228° Southwest 440 506 36,000  Level Montreal Center
Thu 11:47:21 AM 59.1333 -66.4833 231° Southwest 440 506 36,000  Level Gander Center
Thu 11:48:21 AM 59.0500 -66.6667 229° Southwest 450 518 36,000  Level Gander Center
Thu 11:49:21 AM 58.9500 -66.8333 221° Southwest 440 506 36,000  Level Gander Center
Thu 11:50:21 AM 58.8833 -66.9833 229° Southwest 450 518 36,000  Level Gander Center
Thu 11:51:21 AM 58.7833 -67.1667 224° Southwest 450 518 36,000  Level Gander Center
Thu 11:52:21 AM 58.7000 -67.3500 229° Southwest 450 518 36,000  Level Gander Center
Thu 11:53:21 AM 58.6167 -67.5000 223° Southwest 450 518 36,000  Level Gander Center
Thu 11:54:21 AM 58.5167 -67.6667 221° Southwest 450 518 36,000  Level Gander Center
Thu 11:55:21 AM 58.4333 -67.8500 229° Southwest 460 529 36,000  Level Gander Center
Thu 11:56:21 AM 58.3500 -67.9833 220° Southwest 460 529 36,000  Level Gander Center
Thu 11:57:21 AM 58.2667 -68.1667 229° Southwest 460 529 36,000  Level Gander Center
Thu 11:58:21 AM 58.1667 -68.3333 221° Southwest 470 541 36,000  Level Gander Center
Thu 11:59:14 AM 58.1000 -68.4167 213° Southwest 510 587 36,000  Level Montreal Center
Thu 12:00:14 PM 57.9667 -68.5667 211° Southwest 450 518 36,000  Level Montreal Center
Thu 12:01:14 PM 57.8833 -68.7167 224° Southwest 450 518 36,000  Level Montreal Center
Thu 12:02:14 PM 57.7833 -68.8167 208° Southwest 440 506 36,000  Level Montreal Center
Thu 12:03:14 PM 57.6833 -68.9667 219° Southwest 450 518 36,000  Level Montreal Center
Thu 12:04:14 PM 57.5833 -69.1167 219° Southwest 450 518 36,000  Level Montreal Center
Thu 12:05:14 PM 57.4667 -69.2333 208° Southwest 450 518 36,000  Level Montreal Center
Thu 12:06:14 PM 57.3667 -69.3500 212° Southwest 450 518 36,000  Level Montreal Center
Thu 12:07:14 PM 57.2667 -69.4500 208° Southwest 440 506 36,000  Level Montreal Center
Thu 12:08:14 PM 57.1500 -69.6000 215° Southwest 440 506 36,000  Level Montreal Center
Thu 12:09:14 PM 57.0500 -69.7000 209° Southwest 440 506 36,000  Level Montreal Center
Thu 12:10:14 PM 56.9500 -69.8167 212° Southwest 450 518 36,000  Level Montreal Center
Thu 12:11:14 PM 56.8333 -69.9333 209° Southwest 450 518 36,000  Level Montreal Center
Thu 12:12:14 PM 56.7333 -70.0667 216° Southwest 450 518 36,000  Level Montreal Center
Thu 12:13:14 PM 56.6000 -70.1833 206° Southwest 450 518 36,000  Level Montreal Center
Thu 12:14:14 PM 56.5167 -70.2833 214° Southwest 450 518 36,000  Level Montreal Center
Thu 12:15:14 PM 56.4000 -70.4167 212° Southwest 440 506 36,000  Level Montreal Center
Thu 12:16:14 PM 56.2833 -70.5333 209° Southwest 440 506 36,000  Level Montreal Center
Thu 12:17:14 PM 56.1833 -70.6333 209° Southwest 440 506 36,000  Level Montreal Center
Thu 12:18:14 PM 56.0667 -70.7500 209° Southwest 440 506 36,000  Level Montreal Center
Thu 12:19:14 PM 55.9833 -70.8833 222° Southwest 440 506 36,000  Level Montreal Center
Thu 12:20:14 PM 55.8667 -70.9500 198° South 450 518 36,000  Level Montreal Center
Thu 12:21:14 PM 55.7500 -71.0833 213° Southwest 450 518 36,000  Level Montreal Center
Thu 12:22:14 PM 55.6333 -71.1833 206° Southwest 440 506 36,000  Level Montreal Center
Thu 12:23:14 PM 55.5333 -71.2833 210° Southwest 440 506 36,000  Level Montreal Center
Thu 12:24:14 PM 55.4333 -71.4000 214° Southwest 440 506 36,000  Level Montreal Center
Thu 12:25:14 PM 55.3333 -71.5167 214° Southwest 440 506 36,000  Level Montreal Center
Thu 12:26:14 PM 55.2167 -71.6167 206° Southwest 450 518 36,000  Level Montreal Center
Thu 12:27:14 PM 55.1167 -71.7167 210° Southwest 450 518 36,000  Level Montreal Center
Thu 12:28:14 PM 55.0000 -71.8167 206° Southwest 450 518 36,000  Level Montreal Center
Thu 12:29:14 PM 54.8833 -71.9500 213° Southwest 450 518 36,000  Level Montreal Center
Thu 12:30:14 PM 54.8000 -72.0500 215° Southwest 440 506 36,000  Level Montreal Center
Thu 12:31:14 PM 54.6833 -72.1500 206° Southwest 440 506 36,000  Level Montreal Center
Thu 12:32:14 PM 54.5667 -72.2500 206° Southwest 440 506 36,000  Level Montreal Center
Thu 12:33:14 PM 54.4500 -72.3667 210° Southwest 450 518 36,000  Level Montreal Center
Thu 12:34:14 PM 54.3500 -72.4667 210° Southwest 450 518 36,000  Level Montreal Center
Thu 12:35:14 PM 54.2333 -72.5667 207° Southwest 450 518 36,000  Level Montreal Center
Thu 12:36:14 PM 54.1167 -72.6833 210° Southwest 450 518 36,000  Level Montreal Center
Thu 12:37:14 PM 54.0167 -72.7833 210° Southwest 450 518 36,000  Level Montreal Center
Thu 12:38:14 PM 53.9000 -72.8833 207° Southwest 450 518 36,000  Level Montreal Center
Thu 12:39:14 PM 53.7833 -72.9667 203° Southwest 450 518 36,000  Level Montreal Center
Thu 12:40:14 PM 53.7000 -73.0833 220° Southwest 450 518 36,000  Level Montreal Center
Thu 12:41:14 PM 53.5833 -73.1833 207° Southwest 450 518 36,000  Level Montreal Center
Thu 12:42:14 PM 53.4667 -73.2833 207° Southwest 450 518 36,000  Level Montreal Center
Thu 12:43:14 PM 53.3667 -73.3667 206° Southwest 450 518 36,000  Level Montreal Center
Thu 12:44:14 PM 53.2500 -73.4833 211° Southwest 450 518 36,000  Level Montreal Center
Thu 12:45:14 PM 53.1333 -73.5833 207° Southwest 450 518 36,000  Level Montreal Center
Thu 12:46:14 PM 53.0167 -73.6667 203° Southwest 450 518 36,000  Level Montreal Center
Thu 12:47:14 PM 52.9000 -73.7833 211° Southwest 450 518 36,000  Level Montreal Center
Thu 12:48:14 PM 52.8000 -73.8833 211° Southwest 450 518 36,000  Level Montreal Center
Thu 12:49:14 PM 52.6833 -73.9667 203° Southwest 450 518 36,000  Level Montreal Center
Thu 12:50:14 PM 52.5667 -74.0500 203° Southwest 450 518 36,000  Level Montreal Center
Thu 12:51:14 PM 52.4667 -74.1667 215° Southwest 450 518 36,000  Level Montreal Center
Thu 12:52:14 PM 52.3500 -74.2500 204° Southwest 450 518 36,000  Level Montreal Center
Thu 12:53:14 PM 52.2333 -74.3500 208° Southwest 450 518 36,000  Level Montreal Center
Thu 12:54:14 PM 52.1333 -74.4333 207° Southwest 440 506 36,000  Level Montreal Center
Thu 12:55:14 PM 52.0167 -74.5500 212° Southwest 460 529 36,000  Level Montreal Center
Thu 12:56:14 PM 51.9000 -74.6333 204° Southwest 450 518 36,000  Level Montreal Center
Thu 12:57:14 PM 51.8000 -74.7167 207° Southwest 450 518 36,000  Level Montreal Center
Thu 12:58:14 PM 51.6667 -74.8167 205° Southwest 450 518 36,000  Level Montreal Center
Thu 12:59:14 PM 51.5667 -74.9167 212° Southwest 450 518 36,000  Level Montreal Center
Thu 01:00:14 PM 51.4500 -75.0000 204° Southwest 450 518 36,000  Level Montreal Center
Thu 01:01:14 PM 51.3333 -75.1000 208° Southwest 450 518 36,000  Level Montreal Center
Thu 01:02:14 PM 51.2333 -75.1833 208° Southwest 450 518 36,000  Level Montreal Center
Thu 01:03:14 PM 51.1167 -75.2667 204° Southwest 450 518 36,000  Level Montreal Center
Thu 01:04:14 PM 51.0000 -75.3500 204° Southwest 450 518 36,000  Level Montreal Center
Thu 01:05:14 PM 50.8833 -75.4667 212° Southwest 450 518 36,000  Level Montreal Center
Thu 01:06:14 PM 50.7833 -75.5333 203° Southwest 450 518 36,000  Level Montreal Center
Thu 01:07:14 PM 50.6667 -75.6167 204° Southwest 450 518 36,000  Level Montreal Center
Thu 01:08:14 PM 50.5500 -75.7333 212° Southwest 450 518 36,000  Level Montreal Center
Thu 01:09:14 PM 50.4333 -75.8000 200° South 450 518 36,000  Level Montreal Center
Thu 01:10:14 PM 50.3333 -75.8833 208° Southwest 450 518 36,000  Level Montreal Center
Thu 01:11:14 PM 50.2167 -76.0000 213° Southwest 450 518 36,000  Level Montreal Center
Thu 01:12:14 PM 50.1000 -76.0667 200° South 450 518 36,000  Level Montreal Center
Thu 01:13:14 PM 49.9833 -76.1500 205° Southwest 450 518 36,000  Level Montreal Center
Thu 01:14:14 PM 49.8667 -76.2500 209° Southwest 450 518 36,000  Level Montreal Center
Thu 01:15:14 PM 49.7500 -76.3333 205° Southwest 450 518 36,000  Level Montreal Center
Thu 01:16:14 PM 49.6333 -76.4000 200° South 450 518 36,000  Level Montreal Center
Thu 01:17:14 PM 49.5167 -76.4833 205° Southwest 450 518 36,000  Level Montreal Center
Thu 01:18:14 PM 49.4000 -76.5833 209° Southwest 460 529 36,000  Level Montreal Center
Thu 01:19:14 PM 49.3000 -76.6667 209° Southwest 450 518 36,000  Level Montreal Center
Thu 01:20:14 PM 49.1833 -76.7333 200° South 460 529 36,000  Level Montreal Center
Thu 01:21:14 PM 49.0667 -76.8333 209° Southwest 450 518 36,000  Level Montreal Center
Thu 01:22:14 PM 48.9667 -76.9167 209° Southwest 450 518 36,000  Level Montreal Center
Thu 01:23:14 PM 48.8500 -76.9833 201° Southwest 460 529 36,000  Level Montreal Center
Thu 01:24:14 PM 48.7333 -77.0833 209° Southwest 450 518 36,000  Level Montreal Center
Thu 01:25:14 PM 48.6000 -77.1667 202° Southwest 460 529 36,000  Level Montreal Center
Thu 01:26:13 PM 48.4833 -77.2333 201° Southwest 450 518 36,000  Level Montreal Center
Thu 01:27:13 PM 48.3833 -77.3000 204° Southwest 460 529 36,000  Level Montreal Center
Thu 01:28:13 PM 48.2667 -77.4000 210° Southwest 450 518 36,000  Level Montreal Center
Thu 01:29:13 PM 48.1500 -77.4833 205° Southwest 450 518 36,000  Level Montreal Center
Thu 01:30:13 PM 48.0333 -77.5500 201° Southwest 450 518 36,000  Level Montreal Center
Thu 01:31:13 PM 47.9167 -77.6500 210° Southwest 450 518 36,000  Level Montreal Center
Thu 01:32:13 PM 47.8167 -77.7167 204° Southwest 460 529 36,000  Level Montreal Center
Thu 01:33:13 PM 47.6833 -77.7833 199° South 450 518 36,000  Level Montreal Center
Thu 01:34:13 PM 47.5667 -77.8833 210° Southwest 450 518 36,000  Level Montreal Center
Thu 01:35:13 PM 47.4667 -77.9500 204° Southwest 450 518 36,000  Level Montreal Center
Thu 01:36:13 PM 47.3333 -78.0500 207° Southwest 450 518 36,000  Level Montreal Center
Thu 01:37:13 PM 47.2333 -78.1167 204° Southwest 450 518 36,000  Level Montreal Center
Thu 01:38:13 PM 47.1167 -78.1833 201° Southwest 450 518 36,000  Level Montreal Center
Thu 01:39:13 PM 47.0000 -78.2500 201° Southwest 450 518 36,000  Level Montreal Center
Thu 01:40:13 PM 46.9000 -78.3500 214° Southwest 450 518 36,000  Level Montreal Center
Thu 01:40:59 PM 46.7833 -78.3667 186° South 450 518 36,000  Level Toronto Center
Thu 01:41:59 PM 46.6833 -78.4333 205° Southwest 450 518 36,000  Level Toronto Center
Thu 01:42:59 PM 46.5667 -78.5167 206° Southwest 450 518 36,000  Level Toronto Center
Thu 01:43:59 PM 46.4667 -78.5833 205° Southwest 450 518 36,000  Level Toronto Center
Thu 01:44:59 PM 46.3333 -78.6667 203° Southwest 450 518 36,000  Level Toronto Center
Thu 01:45:59 PM 46.2333 -78.7333 205° Southwest 450 518 36,000  Level Toronto Center
Thu 01:46:59 PM 46.1000 -78.8167 203° Southwest 450 518 36,000  Level Toronto Center
Thu 01:47:59 PM 46.0000 -78.8833 205° Southwest 450 518 36,000  Level Toronto Center
Thu 01:48:59 PM 45.8833 -78.9667 206° Southwest 450 518 36,000  Level Toronto Center
Thu 01:49:59 PM 45.7667 -79.0333 202° Southwest 450 518 36,000  Level Toronto Center
Thu 01:50:59 PM 45.6500 -79.1000 202° Southwest 450 518 36,000  Level Toronto Center
Thu 01:51:59 PM 45.5333 -79.1833 207° Southwest 450 518 36,000  Level Toronto Center
Thu 01:57:36 PM 44.8952 -79.6034 203° Southwest 443 510 36,000  Level FlightAware ADS-B (EPLB / LUZ)
Thu 01:58:32 PM 44.8122 -79.6541 203° Southwest 440 506 36,000  Level FlightAware ADS-B (EPLB / LUZ)
Thu 01:59:14 PM 44.7161 -79.7122 203° Southwest 437 503 36,000  Level FlightAware ADS-B (EPLB / LUZ)
Thu 01:59:56 PM 44.6357 -79.7607 203° Southwest 435 501 36,000  Level FlightAware ADS-B (CYKF)
Thu 02:00:40 PM 44.5590 -79.8131 210° Southwest 430 495 36,000  Level FlightAware ADS-B (EPGD / GDN)
Thu 02:01:10 PM 44.5573 -79.8145 210° Southwest 430 495 36,000  Level FlightAware ADS-B (EPGD / GDN)
Thu 02:01:46 PM 44.4466 -79.9151 213° Southwest 432 497 36,000  Level FlightAware ADS-B (EPLB / LUZ)
Thu 02:02:26 PM 44.3833 -79.9726 213° Southwest 434 499 36,000  Level FlightAware ADS-B (EPLB / LUZ)
Thu 02:03:06 PM 44.3107 -80.0377 213° Southwest 434 499 36,000  Level FlightAware ADS-B (EPLB / LUZ)
Thu 02:03:44 PM 44.2474 -80.0941 213° Southwest 433 498 36,000  Level FlightAware ADS-B (EPLB / LUZ)
Thu 02:04:31 PM 44.1682 -80.1647 213° Southwest 430 495 36,000  Level FlightAware ADS-B (EPLB / LUZ)
Thu 02:05:29 PM 44.0765 -80.2463 213° Southwest 431 496 36,000  Level FlightAware ADS-B (EPLB / LUZ)
Thu 02:06:08 PM 44.0064 -80.3085 213° Southwest 430 495 36,000  Level FlightAware ADS-B (EPLB / LUZ)
Thu 02:06:41 PM 43.9530 -80.3558 213° Southwest 427 491 36,000  Level FlightAware ADS-B (EPLB / LUZ)
Thu 02:07:21 PM 43.8910 -80.4105 213° Southwest 426 490 36,000  Level FlightAware ADS-B (EPLB / LUZ)
Thu 02:07:54 PM 43.8295 -80.4644 212° Southwest 425 489 36,000  Level FlightAware ADS-B (EPLB / LUZ)
Thu 02:08:59 PM 43.7236 -80.5571 212° Southwest 422 486 36,000  Level FlightAware ADS-B (CYKF)
Thu 02:09:39 PM 43.6589 -80.6138 213° Southwest 419 482 36,000  Level FlightAware ADS-B (CZBA)
Thu 02:10:40 PM 43.5572 -80.7024 212° Southwest 416 479 36,000  Level FlightAware ADS-B (EPLB / LUZ)
Thu 02:11:17 PM 43.4974 -80.7542 212° Southwest 414 476 36,000  Level FlightAware ADS-B
Thu 02:11:54 PM 43.4383 -80.8054 212° Southwest 415 478 36,000  Level FlightAware ADS-B (EPLB / LUZ)
Thu 02:12:47 PM 43.3555 -80.8770 212° Southwest 416 479 36,000  Level FlightAware ADS-B (EPLB / LUZ)
Thu 02:13:27 PM 43.2941 -80.9298 212° Southwest 416 479 36,000  Level FlightAware ADS-B (EPLB / LUZ)
Thu 02:14:20 PM 43.2001 -81.0105 212° Southwest 416 479 36,000  Level FlightAware ADS-B (EPLB / LUZ)
Thu 02:14:58 PM 43.1383 -81.0633 212° Southwest 415 478 36,000  Level FlightAware ADS-B (CYKF)
Thu 02:15:52 PM 43.0513 -81.1373 211° Southwest 414 476 36,000  Level FlightAware ADS-B (EPLB / LUZ)
Thu 02:16:46 PM 42.9608 -81.1954 205° Southwest 415 478 36,000  Level FlightAware ADS-B (EPLB / LUZ)
Thu 02:17:38 PM 42.8667 -81.2548 205° Southwest 416 479 36,000  Level FlightAware ADS-B (EPLB / LUZ)
Thu 02:18:18 PM 42.7986 -81.2969 204° Southwest 417 480 36,000  Level FlightAware ADS-B (EPLB / LUZ)
Thu 02:19:30 PM 42.6854 -81.3664 204° Southwest 416 479 36,000  Level FlightAware ADS-B (EPLB / LUZ)
Thu 02:20:04 PM 42.6421 -81.3929 204° Southwest 416 479 36,000  Level FlightAware ADS-B (EPLB / LUZ)
Thu 02:20:40 PM 42.5476 -81.4506 204° Southwest 417 480 36,000  Level FlightAware ADS-B (EPLB / LUZ)
Thu 02:21:33 PM 42.4809 -81.4912 204° Southwest 417 480 36,000  Level FlightAware ADS-B (EPLB / LUZ)
Thu 02:22:44 PM 42.4554 -81.5067 204° Southwest 418 481 36,000  Level FlightAware ADS-B (CYKF)
Thu 02:23:39 PM 42.2935 -81.6049 204° Southwest 418 481 36,000  Level FlightAware ADS-B (EPLB / LUZ)
Thu 02:25:03 PM 42.0986 -81.7225 204° Southwest 415 478 36,000  Level Cleveland Center
Thu 02:26:05 PM 41.9956 -81.7833 204° Southwest 409 471 36,000  Level Cleveland Center
Thu 02:27:07 PM 41.8917 -81.8467 204° Southwest 406 467 36,000  Level Cleveland Center
Thu 02:28:09 PM 41.7719 -81.9183 204° Southwest 405 466 36,000  Level Cleveland Center
Thu 02:29:11 PM 41.6703 -81.9783 204° Southwest 401 461 36,000  Level Cleveland Center
Thu 02:30:13 PM 41.5675 -82.0381 204° Southwest 401 461 36,000  Level Cleveland Center
Thu 02:31:15 PM 41.4683 -82.0969 204° Southwest 394 453 36,000  Level Cleveland Center
Thu 02:32:17 PM 41.3692 -82.1550 204° Southwest 391 450 36,000  Level Cleveland Center
Thu 02:33:19 PM 41.2633 -82.1950 196° South 392 451 36,000  Level Cleveland Center
Thu 02:34:22 PM 41.1397 -82.2411 196° South 394 453 36,000  Level Cleveland Center
Thu 02:35:24 PM 41.0344 -82.2786 195° South 391 450 36,000  Level Cleveland Center
Thu 02:36:26 PM 40.9319 -82.3136 194° South 383 441 36,000 313 Level Cleveland Center
Thu 02:41:47 PM 40.5829 -82.4379 195° South 418 481 38,000 272 Climbing FlightAware ADS-B
Thu 02:43:47 PM 40.1286 -82.5884 186° South 423 487 38,000  Level FlightAware ADS-B
Thu 02:44:18 PM 40.0654 -82.5934 183° South 426 490 38,000  Level FlightAware ADS-B
Thu 02:44:49 PM 40.0057 -82.5980 183° South 424 488 38,000  Level FlightAware ADS-B
Thu 02:45:25 PM 39.9340 -82.6032 183° South 424 488 38,000  Level FlightAware ADS-B
Thu 02:46:04 PM 39.8573 -82.6084 183° South 424 488 38,000  Level FlightAware ADS-B
Thu 02:46:44 PM 39.7812 -82.6135 183° South 421 484 38,000  Level FlightAware ADS-B
Thu 02:47:25 PM 39.7018 -82.6188 183° South 409 471 38,000  Level FlightAware ADS-B
Thu 02:47:55 PM 39.6460 -82.6225 183° South 408 470 38,000  Level FlightAware ADS-B
Thu 02:48:25 PM 39.5891 -82.6265 183° South 408 470 38,000  Level FlightAware ADS-B
Thu 02:48:58 PM 39.5296 -82.6306 183° South 409 471 38,000  Level FlightAware ADS-B
Thu 02:49:28 PM 39.4695 -82.6346 183° South 410 472 38,000  Level FlightAware ADS-B
Thu 02:50:12 PM 39.3872 -82.6401 183° South 411 473 38,000  Level FlightAware ADS-B
Thu 02:50:42 PM 39.3346 -82.6435 183° South 411 473 38,000  Level FlightAware ADS-B
Thu 02:51:36 PM 39.2274 -82.6506 183° South 410 472 38,000  Level FlightAware ADS-B
Thu 02:52:06 PM 39.1709 -82.6542 183° South 409 471 38,000  Level FlightAware ADS-B
Thu 02:52:54 PM 39.0795 -82.6605 183° South 409 471 38,000  Level FlightAware ADS-B
Thu 02:53:24 PM 39.0228 -82.6642 183° South 409 471 38,000  Level FlightAware ADS-B
Thu 02:54:07 PM 38.9430 -82.6693 183° South 406 467 38,000  Level FlightAware ADS-B
Thu 02:54:48 PM 38.8722 -82.6743 183° South 403 464 38,000 400 Level FlightAware ADS-B
Thu 02:55:37 PM 38.7753 -82.6805 183° South 403 464 38,600 809 Climbing FlightAware ADS-B
Thu 02:56:17 PM 38.7005 -82.6854 183° South 406 467 39,200 857 Climbing FlightAware ADS-B
Thu 02:56:54 PM 38.6303 -82.6901 183° South 410 472 39,700 716 Climbing FlightAware ADS-B
Thu 02:57:24 PM 38.5748 -82.6936 183° South 411 473 40,000 209 Climbing FlightAware ADS-B
Thu 02:58:20 PM 38.4662 -82.7006 183° South 415 478 40,000  Level FlightAware ADS-B
Thu 02:59:05 PM 38.4028 -82.7058 183° South 411 473 40,000  Level Indianapolis Center
Thu 03:00:07 PM 38.2675 -82.7139 183° South 411 473 40,000  Level Indianapolis Center
Thu 03:01:09 PM 38.1542 -82.7217 183° South 411 473 40,000  Level Indianapolis Center
Thu 03:02:11 PM 38.0392 -82.7289 183° South 411 473 40,000  Level Indianapolis Center
Thu 03:03:13 PM 37.9261 -82.7372 183° South 411 473 40,000  Level Indianapolis Center
Thu 03:04:16 PM 37.8131 -82.7444 183° South 409 471 40,000  Level Indianapolis Center
Thu 03:05:18 PM 37.6839 -82.7614 186° South 406 467 40,000  Level Indianapolis Center
Thu 03:06:20 PM 37.5842 -82.8114 202° Southwest 388 447 40,000  Level Indianapolis Center
Thu 03:07:22 PM 37.4931 -82.8739 209° Southwest 378 435 40,000  Level Indianapolis Center
Thu 03:08:24 PM 37.4022 -82.9347 208° Southwest 375 432 40,000  Level Indianapolis Center
Thu 03:09:27 PM 37.3103 -82.9933 207° Southwest 373 429 40,000  Level Indianapolis Center
Thu 03:10:28 PM 37.2058 -83.0622 208° Southwest 369 425 40,000  Level Indianapolis Center
Thu 03:11:30 PM 37.1158 -83.1214 208° Southwest 368 423 40,000  Level Indianapolis Center
Thu 03:12:32 PM 37.0272 -83.1789 207° Southwest 365 420 40,000  Level Indianapolis Center
Thu 03:13:34 PM 36.9392 -83.2361 207° Southwest 362 417 40,000 -339 Level Indianapolis Center
Thu 03:14:36 PM 36.8361 -83.3019 207° Southwest 362 417 39,300 -816 Descending Indianapolis Center
Thu 03:15:39 PM 36.7522 -83.3556 207° Southwest 347 399 38,300 -624 Descending Indianapolis Center
Thu 03:16:41 PM 36.6694 -83.4086 207° Southwest 338 389 38,000 -145 Descending Indianapolis Center
Thu 03:17:43 PM 36.5850 -83.4628 207° Southwest 338 389 38,000  Level Indianapolis Center
Thu 03:18:45 PM 36.4919 -83.5217 207° Southwest 346 398 38,000  Level Indianapolis Center
Thu 03:19:47 PM 36.4056 -83.5778 208° Southwest 346 398 38,000  Level Indianapolis Center
Thu 03:20:49 PM 36.3181 -83.6333 207° Southwest 347 399 38,000  Level Indianapolis Center
Thu 03:21:51 PM 36.2311 -83.6883 207° Southwest 348 400 38,000  Level Indianapolis Center
Thu 03:22:53 PM 36.1256 -83.7550 207° Southwest 349 402 38,000  Level Indianapolis Center
Thu 03:23:55 PM 36.0386 -83.8100 207° Southwest 350 403 38,000  Level Indianapolis Center
Thu 03:24:58 PM 35.9508 -83.8653 207° Southwest 350 403 38,000  Level Indianapolis Center
Thu 03:26:00 PM 35.8578 -83.9056 199° South 351 404 38,000  Level Indianapolis Center
Thu 03:27:22 PM 35.7142 -83.9442 192° South 359 413 38,000  Level Atlanta Center
Thu 03:28:22 PM 35.6139 -83.9672 191° South 359 413 38,000  Level Atlanta Center
Thu 03:29:22 PM 35.5139 -83.9928 192° South 369 425 38,000  Level Atlanta Center
Thu 03:30:22 PM 35.4117 -84.0158 190° South 374 430 38,000  Level Atlanta Center
Thu 03:31:22 PM 35.3114 -84.0389 191° South 374 430 38,000  Level Atlanta Center
Thu 03:32:22 PM 35.2092 -84.0642 191° South 374 430 38,000  Level Atlanta Center
Thu 03:33:22 PM 35.1069 -84.0894 191° South 374 430 38,000  Level Atlanta Center
Thu 03:34:22 PM 35.0025 -84.1122 190° South 374 430 38,000  Level Atlanta Center
Thu 03:35:22 PM 34.9003 -84.1400 193° South 374 430 38,000  Level Atlanta Center
Thu 03:36:22 PM 34.7981 -84.1628 190° South 374 430 38,000  Level Atlanta Center
Thu 03:37:22 PM 34.6936 -84.1903 192° South 374 430 38,000  Level Atlanta Center
Thu 03:38:22 PM 34.5936 -84.2053 187° South 368 423 38,000  Level Atlanta Center
Thu 03:39:22 PM 34.4933 -84.2303 192° South 368 423 38,000  Level Atlanta Center
Thu 03:40:22 PM 34.3911 -84.2578 193° South 373 429 38,000  Level Atlanta Center
Thu 03:41:22 PM 34.2886 -84.2803 190° South 373 429 38,000  Level Atlanta Center
Thu 03:42:22 PM 34.1967 -84.3025 191° South 373 429 38,000  Level Atlanta Center
Thu 03:43:22 PM 34.0797 -84.3322 192° South 378 435 38,000  Level Atlanta Center
Thu 03:44:22 PM 33.9817 -84.3569 192° South 373 429 38,000  Level Atlanta Center
Thu 03:45:22 PM 33.8711 -84.3792 189° South 380 437 38,000  Level Atlanta Center
Thu 03:46:22 PM 33.7686 -84.4036 191° South 380 437 38,000  Level Atlanta Center
Thu 03:47:22 PM 33.6683 -84.4281 191° South 385 443 38,000  Level Atlanta Center
Thu 03:48:22 PM 33.5578 -84.4378 184° South 390 449 38,000  Level Atlanta Center
Thu 03:49:22 PM 33.4472 -84.4347 179° South 395 455 38,000  Level Atlanta Center
Thu 03:50:22 PM 33.3386 -84.4342 180° South 400 460 38,000  Level Atlanta Center
Thu 03:51:22 PM 33.2258 -84.4311 179° South 405 466 38,000  Level Atlanta Center
Thu 03:52:22 PM 33.1278 -84.4333 181° South 398 458 38,000  Level Atlanta Center
Thu 03:53:22 PM 33.0172 -84.4278 178° South 398 458 38,000  Level Atlanta Center
Thu 03:54:22 PM 32.9067 -84.4247 179° South 403 464 38,000 -100 Level Atlanta Center
Thu 03:55:22 PM 32.7958 -84.4267 181° South 398 458 37,800 -500 Descending Atlanta Center
Thu 03:56:22 PM 32.6875 -84.4189 177° South 398 458 37,000 -400 Descending Atlanta Center
Thu 03:57:22 PM 32.5808 -84.4161 179° South 398 458 37,000  Level Atlanta Center
Thu 03:58:22 PM 32.4725 -84.4131 179° South 393 452 37,000  Level Atlanta Center
Thu 03:59:22 PM 32.3681 -84.4103 179° South 387 445 37,000  Level Atlanta Center
Thu 04:10:53 PM 31.1904 -84.2427 157° South 376 433 37,000  Level FlightAware ADS-B (KONZ)
Thu 04:11:49 PM 31.0965 -84.1963 157° South 379 436 37,000 -65 Level FlightAware ADS-B (KONZ)
Thu 04:12:26 PM 31.0377 -84.1676 157° South 380 437 36,900  Descending FlightAware ADS-B (KONZ)
Thu 04:13:06 PM 30.9815 -84.1399 157° South 364 419 37,000 -324 Climbing FlightAware ADS-B (KONZ)
Thu 04:13:40 PM 30.9208 -84.1102 157° South 355 409 36,500 -1,000 Descending FlightAware ADS-B (KONZ)
Thu 04:14:18 PM 30.8713 -84.0857 157° South 340 391 35,800 -1,235 Descending FlightAware ADS-B (KONZ)
Thu 04:14:48 PM 30.8215 -84.0615 158° South 345 397 35,100 -686 Descending FlightAware ADS-B (KONZ)
Thu 04:15:28 PM 30.7591 -84.0317 158° South 376 433 35,000 -86 Descending FlightAware ADS-B (KONZ)
Thu 04:15:58 PM 30.7093 -84.0076 157° South 390 449 35,000  Level FlightAware ADS-B (KONZ)
Thu 04:16:29 PM 30.6583 -83.9826 157° South 392 451 35,000  Level FlightAware ADS-B (KONZ)
Thu 04:16:59 PM 30.6102 -83.9591 157° South 390 449 35,000  Level FlightAware ADS-B (KONZ)
Thu 04:17:29 PM 30.5585 -83.9339 157° South 390 449 35,000  Level FlightAware ADS-B (KONZ)
Thu 04:18:08 PM 30.4954 -83.9031 157° South 389 448 35,000  Level FlightAware ADS-B (KONZ)
Thu 04:18:38 PM 30.4540 -83.8831 157° South 389 448 35,000  Level FlightAware ADS-B (KONZ)
Thu 04:19:09 PM 30.3911 -83.8528 157° South 390 449 35,000  Level FlightAware ADS-B (KONZ)
Thu 04:19:39 PM 30.3471 -83.8316 157° South 389 448 35,000  Level FlightAware ADS-B (KONZ)
Thu 04:20:17 PM 30.2799 -83.7991 157° South 391 450 35,000  Level FlightAware ADS-B (KONZ)
Thu 04:21:08 PM 30.1921 -83.7568 157° South 394 453 35,000  Level FlightAware ADS-B (KONZ)
Thu 04:22:24 PM 30.0645 -83.6955 157° South 395 455 35,000  Level FlightAware ADS-B (KONZ)
Thu 04:22:57 PM 30.0256 -83.6753 157° South 392 451 35,000  Level Miami Center
Thu 04:23:31 PM 29.9658 -83.6503 160° South 393 452 35,000  Level Jacksonville Center
Thu 04:24:31 PM 29.8636 -83.6014 157° South 393 452 35,000  Level Jacksonville Center
Thu 04:25:31 PM 29.7617 -83.5528 158° South 393 452 35,000  Level Jacksonville Center
Thu 04:26:31 PM 29.6575 -83.5019 157° South 393 452 35,000 -150 Level Jacksonville Center
Thu 04:27:31 PM 29.5556 -83.4561 159° South 393 452 34,700 -600 Descending Jacksonville Center
Thu 04:28:31 PM 29.4556 -83.4078 157° South 388 447 33,800 -800 Descending Jacksonville Center
Thu 04:29:31 PM 29.3469 -83.3572 158° South 400 460 33,100 -114 Descending Jacksonville Center
Thu 04:35:33 PM 28.7012 -83.0509 158° South 405 466 33,000 -15 Descending FlightAware ADS-B
Thu 04:36:13 PM 28.6315 -83.0185 158° South 411 473 33,000  Level FlightAware ADS-B
Thu 04:38:18 PM 28.4158 -82.9184 158° South 402 463 33,000  Level FlightAware ADS-B
Thu 04:38:48 PM 28.3657 -82.8952 158° South 398 458 33,000  Level FlightAware ADS-B
Thu 04:39:43 PM 28.2840 -82.8574 158° South 400 460 33,000  Level FlightAware ADS-B
Thu 04:40:21 PM 28.2159 -82.8260 158° South 401 461 33,000  Level FlightAware ADS-B
Thu 04:41:12 PM 28.1165 -82.7802 158° South 405 466 33,000  Level FlightAware ADS-B
Thu 04:41:45 PM 28.0611 -82.7546 158° South 405 466 33,000  Level FlightAware ADS-B
Thu 04:42:47 PM 27.9563 -82.7066 158° South 409 471 33,000  Level FlightAware ADS-B (KSFB)
Thu 04:42:52 PM 27.9443 -82.7010 158° South 408 470 33,000  Level FlightAware ADS-B
Thu 04:43:29 PM 27.8908 -82.6731 150° Southeast 422 486 33,000  Level FlightAware ADS-B (KSFB)
Thu 04:44:14 PM 27.8052 -82.6158 149° Southeast 419 482 33,000  Level FlightAware ADS-B
Thu 04:44:44 PM 27.7526 -82.5806 149° Southeast 421 484 33,000  Level FlightAware ADS-B
Thu 04:45:35 PM 27.6680 -82.5243 150° Southeast 421 484 33,000  Level FlightAware ADS-B (KSFB)
Thu 04:46:10 PM 27.6171 -82.4904 149° Southeast 422 486 33,000  Level FlightAware ADS-B (KSFB)
Thu 04:46:43 PM 27.5530 -82.4478 149° Southeast 426 490 33,000  Level FlightAware ADS-B
Thu 04:47:18 PM 27.4936 -82.4083 149° Southeast 426 490 33,000  Level FlightAware ADS-B (KSFB)
Thu 04:47:59 PM 27.4242 -82.3622 150° Southeast 425 489 33,000  Level FlightAware ADS-B (KSFB)
Thu 04:48:33 PM 27.3658 -82.3236 150° Southeast 425 489 33,000  Level FlightAware ADS-B
Thu 04:49:26 PM 27.2955 -82.2772 150° Southeast 427 491 33,000  Level FlightAware ADS-B
Thu 04:49:56 PM 27.2257 -82.2313 150° Southeast 428 493 33,000  Level FlightAware ADS-B (KSFB)
Thu 04:50:33 PM 27.1625 -82.1897 150° Southeast 428 493 33,000  Level FlightAware ADS-B
Thu 04:51:12 PM 27.0983 -82.1474 150° Southeast 434 499 33,000 -496 Level FlightAware ADS-B
Thu 04:52:34 PM 26.9571 -82.0543 150° Southeast 403 464 32,000 -804 Descending FlightAware ADS-B
Thu 04:53:04 PM 26.9206 -82.0305 150° Southeast 398 458 31,500 -769 Descending FlightAware ADS-B
Thu 04:53:52 PM 26.8357 -81.9750 150° Southeast 395 455 31,000 -375 Descending FlightAware ADS-B
Thu 04:54:24 PM 26.7825 -81.9404 150° Southeast 404 465 31,000  Level FlightAware ADS-B
Thu 04:55:00 PM 26.7227 -81.9014 150° Southeast 406 467 31,000  Level FlightAware ADS-B
Thu 04:55:43 PM 26.6536 -81.8562 150° Southeast 401 461 31,000  Level FlightAware ADS-B
Thu 04:57:03 PM 26.5236 -81.7757 156° South 410 472 31,000  Level FlightAware ADS-B
Thu 04:57:53 PM 26.4341 -81.7402 161° South 412 474 31,000  Level FlightAware ADS-B
Thu 04:58:24 PM 26.3789 -81.7188 161° South 409 471 31,000  Level FlightAware ADS-B
Thu 04:58:55 PM 26.3267 -81.6987 161° South 406 467 31,000  Level FlightAware ADS-B
Thu 04:59:30 PM 26.2656 -81.6755 161° South 409 471 31,000  Level FlightAware ADS-B
Thu 05:00:10 PM 26.1962 -81.6492 161° South 411 473 31,000  Level FlightAware ADS-B
Thu 05:01:23 PM 26.0585 -81.5972 161° South 411 473 31,000  Level FlightAware ADS-B
Thu 05:02:04 PM 25.9819 -81.5684 161° South 423 487 31,000  Level FlightAware ADS-B
Thu 05:02:54 PM 25.8882 -81.5332 161° South 427 491 31,000  Level FlightAware ADS-B
Thu 05:03:42 PM 25.8082 -81.5031 161° South 429 494 31,000  Level FlightAware ADS-B
Thu 05:04:15 PM 25.7402 -81.4776 161° South 430 495 31,000  Level FlightAware ADS-B
Thu 05:04:47 PM 25.6750 -81.4532 161° South 431 496 31,000  Level FlightAware ADS-B
Thu 05:05:48 PM 25.5794 -81.4174 161° South 430 495 31,000  Level FlightAware ADS-B
Thu 05:06:18 PM 25.5251 -81.3970 161° South 430 495 31,000  Level FlightAware ADS-B
Thu 05:07:29 PM 25.3900 -81.3467 161° South 428 493 31,000  Level Miami Center
Thu 05:08:31 PM 25.2781 -81.3050 161° South 428 493 31,000 -96 Level Miami Center
Thu 05:09:34 PM 25.1403 -81.2539 161° South 434 499 30,800 -480 Descending Miami Center
Thu 05:10:36 PM 25.0286 -81.2114 161° South 431 496 30,000 -768 Descending Miami Center
Thu 05:11:39 PM 24.9197 -81.1717 162° South 418 481 29,200 -484 Descending Miami Center
Thu 05:12:40 PM 24.8117 -81.1311 161° South 416 479 29,000 -97 Descending Miami Center
Thu 05:13:43 PM 24.7011 -81.1072 169° South 409 471 29,000 -48 Level Miami Center
Thu 05:14:45 PM 24.5703 -81.1172 184° South 394 453 28,900 -484 Descending Miami Center
Thu 05:15:47 PM 24.4642 -81.1311 187° South 385 443 28,000 -960 Descending Miami Center
Thu 05:16:50 PM 24.3639 -81.1497 190° South 370 426 26,900 -1,008 Descending Miami Center
Thu 05:17:52 PM 24.2625 -81.1681 189° South 370 426 25,900 -871 Descending Miami Center
Thu 05:18:54 PM 24.1619 -81.1864 189° South 369 425 25,100 -435 Descending Miami Center
Thu 05:19:56 PM 24.0467 -81.2083 190° South 355 409 25,000 -192 Descending Miami Center
Thu 05:20:59 PM 23.9547 -81.2319 193° South 344 396 24,700 -286 Descending Miami Center
Thu 05:22:00 PM 23.8834 -81.3351 233° Southwest  Level FlightAware Approximate
Thu 05:29:00 PM 23.3305 -81.9887 228° Southwest  Level FlightAware Approximate
Thu 05:30:00 PM 23.2526 -82.0828 226° Southwest  Level FlightAware Approximate
Thu 05:31:00 PM 23.1723 -82.1745 226° Southwest  Level FlightAware Approximate
Thu 05:32:00 PM 23.0879 -82.2575 241° Southwest  Level FlightAware Approximate
Thu 05:33:00 PM 23.0130 -82.3537 223° Southwest  Level FlightAware Approximate
Thu 05:34:00 PM 22.9667 -82.4000 223° Southwest  Level FlightAware Approximate
Thu 05:35:00 PM 22.9891 -82.4091 223° Southwest  Level Estimated
Thu 05:36:00 PM 22.9891 -82.4091 223° Southwest  Level Estimated
Thu 05:37:00 PM 22.9891 -82.4091 223° Southwest  Level Estimated
Thu 05:38:00 PM 22.9891 -82.4091 223° Southwest  Level Estimated
Thu 05:39:00 PM 22.9891 -82.4091 223° Southwest  Level Estimated
Thu 05:40:00 PM 22.9891 -82.4091 223° Southwest  Level Estimated
Thu 05:41:00 PM 22.9891 -82.4091 223° Southwest  Level Estimated
Thu 05:42:00 PM 22.9891 -82.4091 223° Southwest  Level Estimated
Thu 05:43:00 PM 22.9891 -82.4091 223° Southwest  Level Estimated
Thu 05:44:00 PM 22.9891 -82.4091 223° Southwest  Level Estimated
Thu 05:45:00 PM 22.9891 -82.4091 223° Southwest  Level Estimated
Thu 05:46:00 PM 22.9891 -82.4091 223° Southwest  Level Estimated
Thu 05:47:00 PM 22.9891 -82.4091 223° Southwest  Level Estimated
Thu 05:48:00 PM 22.9891 -82.4091 223° Southwest  Level Estimated
Thu 05:49:00 PM 22.9891 -82.4091 223° Southwest  Level Estimated
Thu 05:50:00 PM 22.9891 -82.4091 223° Southwest  Level Estimated
Thu 05:51:00 PM 22.9891 -82.4091 223° Southwest  Level Estimated
Thu 05:52:00 PM 22.9891 -82.4091 223° Southwest  Level Estimated
Thu 05:53:00 PM 22.9891 -82.4091 223° Southwest  Level Estimated
Thu 05:54:00 PM 22.9891 -82.4091 223° Southwest  Level Estimated
Thu 05:55:00 PM 22.9891 -82.4091 223° Southwest  Level Estimated

Login

Don't have an account? Register now (free) for customized features, flight alerts, and more!